createdAt,value
2019-01-24T00:00:08.131Z,26.37
2019-01-24T00:02:36.827Z,24.23
2019-01-24T00:05:05.629Z,27.37
2019-01-24T00:07:34.281Z,24.65
2019-01-24T00:10:02.965Z,26.20
2019-01-24T00:12:31.682Z,24.87
2019-01-24T00:15:00.361Z,26.45
2019-01-24T00:17:29.142Z,24.18
2019-01-24T00:19:57.797Z,25.50
2019-01-24T00:22:26.494Z,24.63
2019-01-24T00:24:55.119Z,25.55
2019-01-24T00:27:24.326Z,26.05
2019-01-24T00:29:52.964Z,25.08
2019-01-24T00:32:21.641Z,24.95
2019-01-24T00:34:50.311Z,24.15
2019-01-24T00:37:18.985Z,25.37
2019-01-24T00:39:47.682Z,24.77
2019-01-24T00:42:16.341Z,26.35
2019-01-24T00:44:45.033Z,25.97
2019-01-24T00:47:13.783Z,24.80
2019-01-24T00:49:42.501Z,26.27
2019-01-24T00:52:11.169Z,24.05
2019-01-24T00:54:39.823Z,24.87
2019-01-24T00:57:08.509Z,24.45
2019-01-24T00:59:37.176Z,26.37
2019-01-24T01:02:05.885Z,25.90
2019-01-24T01:04:34.493Z,25.25
2019-01-24T01:07:03.210Z,25.82
2019-01-24T01:09:31.921Z,24.40
2019-01-24T01:12:00.564Z,25.95
2019-01-24T01:14:29.151Z,25.30
2019-01-24T01:16:57.928Z,26.20
2019-01-24T01:19:26.563Z,24.75
2019-01-24T01:21:55.255Z,24.20
2019-01-24T01:24:23.953Z,25.10
2019-01-24T01:26:52.545Z,26.27
2019-01-24T01:29:21.205Z,24.77
2019-01-24T01:31:49.866Z,27.50
2019-01-24T01:34:18.548Z,26.17
2019-01-24T01:36:47.197Z,26.27
2019-01-24T01:39:15.969Z,24.80
2019-01-24T01:41:44.539Z,23.80
2019-01-24T01:44:13.206Z,26.55
2019-01-24T01:46:41.876Z,26.85
2019-01-24T01:49:10.580Z,25.62
2019-01-24T01:51:39.224Z,26.20
2019-01-24T01:54:07.921Z,27.50
2019-01-24T01:56:36.593Z,26.33
2019-01-24T01:59:05.275Z,25.88
2019-01-24T02:01:33.936Z,27.48
2019-01-24T02:04:02.634Z,25.90
2019-01-24T02:06:31.285Z,27.35
2019-01-24T02:08:59.971Z,25.20
2019-01-24T02:11:28.711Z,28.12
2019-01-24T02:13:57.369Z,27.00
2019-01-24T02:16:26.056Z,26.70
2019-01-24T02:18:54.721Z,27.17
2019-01-24T02:21:23.609Z,28.30
2019-01-24T02:23:52.354Z,27.17
2019-01-24T02:26:20.975Z,25.12
2019-01-24T02:28:49.643Z,26.97
2019-01-24T02:31:18.346Z,27.07
2019-01-24T02:33:47.027Z,25.95
2019-01-24T02:36:15.610Z,28.02
2019-01-24T02:38:44.293Z,27.85
2019-01-24T02:41:12.948Z,28.32
2019-01-24T02:43:41.668Z,28.35
2019-01-24T02:46:10.337Z,26.45
2019-01-24T02:48:39.045Z,26.85
2019-01-24T02:51:07.632Z,26.48
2019-01-24T02:53:36.361Z,27.22
2019-01-24T02:56:05.050Z,27.80
2019-01-24T02:58:33.762Z,26.97
2019-01-24T03:01:02.401Z,27.98
2019-01-24T03:03:31.063Z,29.27
2019-01-24T03:05:59.744Z,28.77
2019-01-24T03:08:28.393Z,26.27
2019-01-24T03:10:57.072Z,28.32
2019-01-24T03:13:25.807Z,29.65
2019-01-24T03:15:54.577Z,29.23
2019-01-24T03:18:23.258Z,30.80
2019-01-24T03:20:51.828Z,28.40
2019-01-24T03:23:20.487Z,31.02
2019-01-24T03:25:49.172Z,32.10
2019-01-24T03:28:17.876Z,28.62
2019-01-24T03:30:46.530Z,29.90
2019-01-24T03:33:15.208Z,32.83
2019-01-24T03:35:43.875Z,30.08
2019-01-24T03:38:12.569Z,30.77
2019-01-24T03:40:41.237Z,30.77
2019-01-24T03:43:09.970Z,30.80
2019-01-24T03:45:38.651Z,31.85
2019-01-24T03:48:07.330Z,31.77
2019-01-24T03:50:36.013Z,32.03
2019-01-24T03:53:04.594Z,29.92
2019-01-24T03:55:33.280Z,32.00
2019-01-24T03:58:01.908Z,30.80
2019-01-24T04:00:30.563Z,31.12
2019-01-24T04:02:59.216Z,31.93
2019-01-24T04:05:27.860Z,30.40
2019-01-24T04:07:56.421Z,30.25
2019-01-24T04:10:25.106Z,30.77
2019-01-24T04:12:53.797Z,29.50
2019-01-24T04:15:23.177Z,31.77
2019-01-24T04:17:52.211Z,30.12
2019-01-24T04:20:20.850Z,32.10
2019-01-24T04:22:49.485Z,31.55
2019-01-24T04:25:19.466Z,31.10
2019-01-24T04:27:48.141Z,31.40
2019-01-24T04:30:17.728Z,31.75
2019-01-24T04:32:46.413Z,30.72
2019-01-24T04:35:20.079Z,31.42
2019-01-24T04:37:46.012Z,31.33
2019-01-24T04:40:15.244Z,28.67
2019-01-24T04:42:43.992Z,30.48
2019-01-24T04:45:13.162Z,31.80
2019-01-24T04:47:41.833Z,29.85
2019-01-24T04:50:11.332Z,31.15
2019-01-24T04:52:40.024Z,30.32
2019-01-24T04:55:09.276Z,29.40
2019-01-24T04:57:37.926Z,30.88
2019-01-24T05:00:09.565Z,30.95
2019-01-24T05:02:38.233Z,31.10
2019-01-24T05:05:07.062Z,30.85
2019-01-24T05:07:35.710Z,29.15
2019-01-24T05:10:05.972Z,30.05
2019-01-24T05:12:34.714Z,31.40
2019-01-24T05:15:03.360Z,29.80
2019-01-24T05:17:32.086Z,30.80
2019-01-24T05:20:00.738Z,31.73
2019-01-24T05:22:29.460Z,29.57
2019-01-24T05:24:58.048Z,30.52
2019-01-24T05:27:26.834Z,30.70
2019-01-24T05:29:55.448Z,29.52
2019-01-24T05:32:24.114Z,31.77
2019-01-24T05:34:52.835Z,30.32
2019-01-24T05:37:21.480Z,31.00
2019-01-24T05:39:50.195Z,31.75
2019-01-24T05:42:18.838Z,31.95
2019-01-24T05:44:47.487Z,29.05
2019-01-24T05:47:16.167Z,32.10
2019-01-24T05:49:44.876Z,31.87
2019-01-24T05:52:19.473Z,30.15
2019-01-24T05:54:43.916Z,29.50
2019-01-24T05:57:12.595Z,29.72
2019-01-24T05:59:41.260Z,31.33
2019-01-24T06:02:09.960Z,31.30
2019-01-24T06:04:38.602Z,29.00
2019-01-24T06:07:07.400Z,29.75
2019-01-24T06:09:36.093Z,30.12
2019-01-24T06:12:04.725Z,30.40
2019-01-24T06:14:33.483Z,31.97
2019-01-24T06:17:02.171Z,31.15
2019-01-24T06:19:31.805Z,30.32
2019-01-24T06:22:00.475Z,30.35
2019-01-24T06:24:29.226Z,31.42
2019-01-24T06:34:10.795Z,29.48
2019-01-24T06:36:39.420Z,31.27
2019-01-24T06:39:08.629Z,30.77
2019-01-24T06:41:37.343Z,32.35
2019-01-24T06:44:05.997Z,31.12
2019-01-24T06:46:34.640Z,33.10
2019-01-24T06:49:03.983Z,32.38
2019-01-24T06:51:32.623Z,28.60
2019-01-24T06:54:03.625Z,31.87
2019-01-24T06:56:32.340Z,31.52
2019-01-24T06:59:01.086Z,31.82
2019-01-24T07:01:29.756Z,30.10
2019-01-24T07:03:58.459Z,30.00
2019-01-24T07:11:43.855Z,32.53
2019-01-24T07:14:12.668Z,31.25
2019-01-24T07:16:41.501Z,32.85
2019-01-24T07:19:10.316Z,31.60
2019-01-24T07:21:39.171Z,31.60
2019-01-24T07:24:07.871Z,32.03
2019-01-24T07:26:37.572Z,32.08
2019-01-24T07:29:06.391Z,32.10
2019-01-24T07:31:38.531Z,31.55
2019-01-24T07:34:07.322Z,30.00
2019-01-24T07:36:36.140Z,31.50
2019-01-24T07:39:06.754Z,31.65
2019-01-24T07:41:35.548Z,32.95
2019-01-24T07:44:09.325Z,30.75
2019-01-24T07:46:38.132Z,32.15
2019-01-24T07:49:06.934Z,31.05
2019-01-24T07:51:35.806Z,32.28
2019-01-24T07:54:04.695Z,29.57
2019-01-24T07:56:33.538Z,32.15
2019-01-24T07:59:02.531Z,31.65
2019-01-24T08:01:31.384Z,29.42
2019-01-24T08:04:00.200Z,30.40
2019-01-24T08:06:29.026Z,32.63
2019-01-24T08:08:57.754Z,30.48
2019-01-24T08:11:26.753Z,31.10
2019-01-24T08:13:55.543Z,31.30
2019-01-24T08:33:34.702Z,30.08
2019-01-24T08:36:03.501Z,28.47
2019-01-24T08:38:32.267Z,30.85
2019-01-24T08:41:00.963Z,30.10
2019-01-24T08:43:29.740Z,30.80
2019-01-24T08:45:58.489Z,31.75
2019-01-24T08:48:27.247Z,29.60
2019-01-24T08:50:55.965Z,30.25
2019-01-24T08:53:24.697Z,29.85
2019-01-24T08:55:53.461Z,29.98
2019-01-24T08:58:22.233Z,31.12
2019-01-24T09:00:51.021Z,31.30
2019-01-24T09:03:19.694Z,30.97
2019-01-24T09:05:48.504Z,31.52
2019-01-24T09:08:17.147Z,32.05
2019-01-24T09:10:46.094Z,30.23
2019-01-24T09:13:15.029Z,31.48
2019-01-24T09:15:44.419Z,30.85
2019-01-24T09:18:13.795Z,32.00
2019-01-24T09:20:43.142Z,30.95
2019-01-24T09:23:12.373Z,31.85
2019-01-24T09:25:41.047Z,30.90
2019-01-24T09:28:14.796Z,33.05
2019-01-24T09:30:40.151Z,34.85
2019-01-24T09:33:08.896Z,33.23
2019-01-24T09:35:37.557Z,34.60
2019-01-24T09:38:06.282Z,31.57
2019-01-24T09:40:34.955Z,33.23
2019-01-24T09:43:03.748Z,31.17
2019-01-24T09:45:32.604Z,31.83
2019-01-24T09:48:01.642Z,32.07
2019-01-24T09:50:30.683Z,29.73
2019-01-24T09:52:59.525Z,30.50
2019-01-24T09:55:28.252Z,32.40
2019-01-24T09:57:56.923Z,31.90
2019-01-24T10:00:26.709Z,32.23
2019-01-24T10:02:55.426Z,31.40
2019-01-24T10:05:24.104Z,32.13
2019-01-24T10:07:52.843Z,31.20
2019-01-24T10:10:22.021Z,31.60
2019-01-24T10:12:50.828Z,30.93
2019-01-24T10:15:19.705Z,31.57
2019-01-24T10:17:48.434Z,30.83
2019-01-24T10:20:17.983Z,31.77
2019-01-24T10:22:46.865Z,31.53
2019-01-24T10:25:20.064Z,32.13
2019-01-24T10:27:48.749Z,31.57
2019-01-24T10:30:18.042Z,27.60
2019-01-24T10:32:46.770Z,31.67
2019-01-24T10:35:15.536Z,31.40
2019-01-24T10:37:44.267Z,28.47
2019-01-24T10:40:14.675Z,29.97
2019-01-24T10:42:43.373Z,29.80
2019-01-24T10:45:12.828Z,28.10
2019-01-24T10:47:41.528Z,27.77
2019-01-24T10:50:10.819Z,28.90
2019-01-24T10:52:39.623Z,27.13
2019-01-24T10:55:13.602Z,29.10
2019-01-24T10:57:39.658Z,28.17
2019-01-24T11:00:10.505Z,28.90
2019-01-24T11:02:39.258Z,26.97
2019-01-24T11:05:08.740Z,27.23
2019-01-24T11:07:37.525Z,27.50
2019-01-24T11:10:06.309Z,28.13
2019-01-24T11:12:34.957Z,27.60
2019-01-24T11:15:04.514Z,26.97
2019-01-24T11:17:33.173Z,25.90
2019-01-24T11:20:01.835Z,25.97
2019-01-24T11:22:30.520Z,24.47
2019-01-24T11:24:59.222Z,24.97
2019-01-24T11:27:28.039Z,23.60
2019-01-24T11:29:56.674Z,27.87
2019-01-24T11:32:26.841Z,33.00
2019-01-24T11:34:55.602Z,32.87
2019-01-24T11:37:24.460Z,33.97
2019-01-24T11:39:53.163Z,36.47
2019-01-24T11:42:21.805Z,35.73
2019-01-24T11:44:50.484Z,34.87
2019-01-24T11:47:19.225Z,36.50
2019-01-24T11:49:47.949Z,36.13
2019-01-24T11:52:16.604Z,37.03
2019-01-24T11:54:45.363Z,35.23
2019-01-24T11:57:14.155Z,37.03
2019-01-24T11:59:42.980Z,35.67
2019-01-24T12:02:11.717Z,36.77
2019-01-24T12:04:41.027Z,37.93
2019-01-24T12:07:09.791Z,35.57
2019-01-24T12:09:38.516Z,35.57
2019-01-24T12:12:07.250Z,35.60
2019-01-24T12:14:35.962Z,34.97
2019-01-24T12:17:04.732Z,32.57
2019-01-24T12:19:33.525Z,34.27
2019-01-24T12:22:02.212Z,33.43
2019-01-24T12:24:31.043Z,36.33
2019-01-24T12:26:59.791Z,33.30
2019-01-24T12:29:28.490Z,34.60
2019-01-24T12:31:57.173Z,32.23
2019-01-24T12:34:25.925Z,32.87
2019-01-24T12:36:54.642Z,30.83
2019-01-24T12:39:23.403Z,33.23
2019-01-24T12:41:52.056Z,33.73
2019-01-24T12:44:21.326Z,33.35
2019-01-24T12:46:50.081Z,31.97
2019-01-24T12:49:18.759Z,35.08
2019-01-24T12:51:47.429Z,34.75
2019-01-24T12:54:16.075Z,34.43
2019-01-24T12:56:44.761Z,31.57
2019-01-24T12:59:13.442Z,33.67
2019-01-24T13:01:42.186Z,33.48
2019-01-24T13:04:10.897Z,33.65
2019-01-24T13:06:39.565Z,32.67
2019-01-24T13:09:08.346Z,34.92
2019-01-24T13:11:37.103Z,33.58
2019-01-24T13:14:05.883Z,32.00
2019-01-24T13:16:34.640Z,31.95
2019-01-24T13:19:03.396Z,33.85
2019-01-24T13:21:32.153Z,32.75
2019-01-24T13:24:00.881Z,32.25
2019-01-24T13:26:30.939Z,31.02
2019-01-24T13:28:59.677Z,29.57
2019-01-24T13:31:28.430Z,29.82
2019-01-24T13:33:57.185Z,32.40
2019-01-24T13:36:25.918Z,29.17
2019-01-24T13:38:54.630Z,29.00
2019-01-24T13:41:23.321Z,28.03
2019-01-24T13:43:52.030Z,27.07
2019-01-24T13:46:20.806Z,29.93
2019-01-24T13:48:49.510Z,28.57
2019-01-24T13:51:18.281Z,28.63
2019-01-24T13:53:47.078Z,29.03
2019-01-24T13:56:15.904Z,27.70
2019-01-24T13:58:44.773Z,29.17
2019-01-24T14:01:13.583Z,28.40
2019-01-24T14:03:53.515Z,26.13
2019-01-24T14:06:22.312Z,28.10
2019-01-24T14:08:51.174Z,27.83
2019-01-24T14:11:19.992Z,27.23
2019-01-24T14:13:48.793Z,26.77
2019-01-24T14:16:17.607Z,26.87
2019-01-24T14:18:46.430Z,28.63
2019-01-24T14:21:15.273Z,27.63
2019-01-24T14:23:44.060Z,26.70
2019-01-24T14:26:12.943Z,28.70
2019-01-24T14:28:41.908Z,29.27
2019-01-24T14:31:10.849Z,29.07
2019-01-24T14:33:40.108Z,27.85
2019-01-24T14:36:08.994Z,31.60
2019-01-24T14:38:37.679Z,30.90
2019-01-24T14:41:06.422Z,30.85
2019-01-24T14:43:35.340Z,28.62
2019-01-24T14:46:04.327Z,29.23
2019-01-24T14:48:33.183Z,29.80
2019-01-24T14:51:01.932Z,32.70
2019-01-24T14:53:30.946Z,31.62
2019-01-24T14:55:59.667Z,30.12
2019-01-24T14:58:28.482Z,30.77
2019-01-24T15:00:59.836Z,30.08
2019-01-24T15:03:28.551Z,31.23
2019-01-24T15:05:57.298Z,29.75
2019-01-24T15:08:26.097Z,30.72
2019-01-24T15:10:54.828Z,30.23
2019-01-24T15:13:23.625Z,30.62
2019-01-24T15:15:52.566Z,28.70
2019-01-24T15:18:21.450Z,30.37
2019-01-24T15:20:50.356Z,29.32
2019-01-24T15:23:19.299Z,27.93
2019-01-24T15:25:48.125Z,28.60
2019-01-24T15:28:17.296Z,29.35
2019-01-24T15:30:46.055Z,31.27
2019-01-24T15:33:14.999Z,29.55
2019-01-24T15:35:43.908Z,29.05
2019-01-24T15:38:12.747Z,27.20
2019-01-24T15:40:41.502Z,28.32
2019-01-24T15:43:10.311Z,29.72
2019-01-24T15:45:39.162Z,29.32
2019-01-24T15:48:08.143Z,29.40
2019-01-24T15:50:36.888Z,29.60
2019-01-24T15:53:05.965Z,30.05
2019-01-24T15:55:34.860Z,28.67
2019-01-24T15:58:03.716Z,30.92
2019-01-24T16:00:32.556Z,28.75
2019-01-24T16:03:01.318Z,28.67
2019-01-24T16:16:34.772Z,30.17
2019-01-24T16:22:34.304Z,30.95
2019-01-24T16:25:04.227Z,30.95
2019-01-24T16:27:34.479Z,32.03
2019-01-24T16:30:06.176Z,30.40
2019-01-24T16:32:47.047Z,29.90
2019-01-24T16:35:25.262Z,31.35
2019-01-24T16:37:54.127Z,32.03
2019-01-24T16:40:23.834Z,30.88
2019-01-24T16:43:14.625Z,30.30
2019-01-24T16:45:58.886Z,29.63
2019-01-24T16:48:27.867Z,30.82
2019-01-24T16:50:56.763Z,31.05
2019-01-24T16:53:25.617Z,31.60
2019-01-24T16:55:54.421Z,31.85
2019-01-24T16:58:23.284Z,31.35
2019-01-24T17:01:02.729Z,32.10
2019-01-24T17:03:31.704Z,32.75
2019-01-24T17:06:00.504Z,33.60
2019-01-24T17:08:29.359Z,32.40
2019-01-24T17:10:58.154Z,31.45
2019-01-24T17:13:26.984Z,32.93
2019-01-24T17:15:56.046Z,30.70
2019-01-24T17:18:26.064Z,33.05
2019-01-24T17:20:54.844Z,32.98
2019-01-24T17:23:23.763Z,32.78
2019-01-24T17:25:52.732Z,30.62
2019-01-24T17:28:21.753Z,31.73
2019-01-24T17:30:50.718Z,34.10
2019-01-24T17:33:20.580Z,33.92
2019-01-24T17:35:49.563Z,33.18
2019-01-24T17:38:23.612Z,34.10
2019-01-24T17:40:49.987Z,33.35
2019-01-24T17:43:18.857Z,35.23
2019-01-24T17:45:47.875Z,36.70
2019-01-24T17:48:16.929Z,33.92
2019-01-24T17:50:45.975Z,33.67
2019-01-24T17:53:15.171Z,32.50
2019-01-24T17:55:45.223Z,33.35
2019-01-24T17:58:14.401Z,34.00
2019-01-24T18:00:47.816Z,33.10
2019-01-24T18:03:16.861Z,31.80
2019-01-24T18:05:45.766Z,33.02
2019-01-24T18:08:14.610Z,33.35
2019-01-24T18:10:43.443Z,33.92
2019-01-24T18:13:12.303Z,35.10
2019-01-24T18:15:41.064Z,33.58
2019-01-24T18:18:11.188Z,34.67
2019-01-24T18:20:40.150Z,32.85
2019-01-24T18:23:09.330Z,34.67
2019-01-24T18:25:38.115Z,32.17
2019-01-24T18:28:07.771Z,34.55
2019-01-24T18:30:36.827Z,32.85
2019-01-24T18:33:06.077Z,32.78
2019-01-24T18:35:35.093Z,31.85
2019-01-24T18:38:03.946Z,33.67
2019-01-24T18:40:33.081Z,33.83
2019-01-24T18:43:01.967Z,33.98
2019-01-24T18:45:38.284Z,32.35
2019-01-24T18:48:07.255Z,34.10
2019-01-24T18:50:36.113Z,36.20
2019-01-24T18:53:05.327Z,35.60
2019-01-24T18:55:35.928Z,34.23
2019-01-24T18:58:05.169Z,35.25
2019-01-24T19:00:36.378Z,34.20
2019-01-24T19:03:05.980Z,35.28
2019-01-24T19:05:34.707Z,36.35
2019-01-24T19:08:03.492Z,34.45
2019-01-24T19:10:32.327Z,35.80
2019-01-24T19:13:01.048Z,34.08
2019-01-24T19:15:29.774Z,36.83
2019-01-24T19:17:58.484Z,32.90
2019-01-24T19:20:27.693Z,34.53
2019-01-24T19:22:56.700Z,35.30
2019-01-24T19:25:25.921Z,33.30
2019-01-24T19:27:55.860Z,35.38
2019-01-24T19:30:26.291Z,35.03
2019-01-24T19:32:55.524Z,35.63
2019-01-24T19:35:24.676Z,34.60
2019-01-24T19:37:53.833Z,36.28
2019-01-24T19:40:23.141Z,34.90
2019-01-24T19:42:52.113Z,34.40
2019-01-24T19:45:21.848Z,33.70
2019-01-24T19:47:51.012Z,35.83
2019-01-24T19:50:20.770Z,34.45
2019-01-24T19:52:49.768Z,35.83
2019-01-24T19:55:18.687Z,36.63
2019-01-24T19:57:47.701Z,36.03
2019-01-24T20:00:18.006Z,33.13
2019-01-24T20:02:47.217Z,36.28
2019-01-24T20:05:16.601Z,35.23
2019-01-24T20:07:45.583Z,32.40
2019-01-24T20:10:16.277Z,34.65
2019-01-24T20:12:45.381Z,35.85
2019-01-24T20:15:15.752Z,33.53
2019-01-24T20:17:44.826Z,33.83
2019-01-24T20:20:13.710Z,34.40
2019-01-24T20:22:42.492Z,33.58
2019-01-24T20:25:12.208Z,32.28
2019-01-24T20:27:40.961Z,34.38
2019-01-24T20:30:11.483Z,33.78
2019-01-24T20:32:40.220Z,31.35
2019-01-24T20:35:10.585Z,35.10
2019-01-24T20:37:39.360Z,34.88
2019-01-24T20:40:08.842Z,33.20
2019-01-24T20:42:37.540Z,33.90
2019-01-24T20:45:06.870Z,35.20
2019-01-24T20:47:35.851Z,35.68
2019-01-24T20:50:04.921Z,34.55
2019-01-24T20:52:33.696Z,33.33
2019-01-24T20:55:02.465Z,33.83
2019-01-24T20:57:31.379Z,32.85
2019-01-24T21:00:00.361Z,33.48
2019-01-24T21:02:29.080Z,33.70
2019-01-24T21:04:57.881Z,35.05
2019-01-24T21:07:26.626Z,34.23
2019-01-24T21:09:55.824Z,34.80
2019-01-24T21:12:24.618Z,32.42
2019-01-24T21:14:53.472Z,34.30
2019-01-24T21:17:22.401Z,34.30
2019-01-24T21:19:51.219Z,34.08
2019-01-24T21:22:20.160Z,32.98
2019-01-24T21:24:48.959Z,34.03
2019-01-24T21:27:17.942Z,33.15
2019-01-24T21:29:46.707Z,32.10
2019-01-24T21:32:15.522Z,32.98
2019-01-24T21:34:44.287Z,33.38
2019-01-24T21:37:13.038Z,34.70
2019-01-24T21:39:41.937Z,35.03
2019-01-24T21:42:10.623Z,32.93
2019-01-24T21:44:39.323Z,34.48
2019-01-24T21:47:08.055Z,32.13
2019-01-24T22:19:42.252Z,29.95
2019-01-24T22:22:11.002Z,30.97
2019-01-24T22:24:39.730Z,32.73
2019-01-24T22:27:08.432Z,33.23
2019-01-24T22:29:37.227Z,33.88
2019-01-24T22:32:06.078Z,35.20
2019-01-24T22:34:34.877Z,33.88
2019-01-24T22:37:03.625Z,32.80
2019-01-24T22:39:36.558Z,31.93
2019-01-24T22:42:02.893Z,35.13
2019-01-24T22:44:31.664Z,32.08
2019-01-24T22:47:00.369Z,34.30
2019-01-24T22:49:29.230Z,34.03
2019-01-24T22:51:58.060Z,33.45
2019-01-24T22:54:27.996Z,33.18
2019-01-24T22:56:56.818Z,34.67
2019-01-24T22:59:25.528Z,35.20
2019-01-24T23:02:06.308Z,35.55
2019-01-24T23:04:34.991Z,36.00
2019-01-24T23:07:03.865Z,36.55
2019-01-24T23:09:32.612Z,35.60
2019-01-24T23:12:01.385Z,36.55
2019-01-24T23:14:30.091Z,36.03
2019-01-24T23:16:58.778Z,34.70
2019-01-24T23:19:27.469Z,33.83
2019-01-24T23:22:04.711Z,33.55
2019-01-24T23:24:33.487Z,34.95
2019-01-24T23:27:02.209Z,36.13
2019-01-24T23:29:32.956Z,34.63
2019-01-24T23:32:01.732Z,36.53
2019-01-24T23:34:33.484Z,34.30
2019-01-24T23:37:27.250Z,34.23
2019-01-24T23:40:06.601Z,34.20
2019-01-24T23:42:43.824Z,34.23
2019-01-24T23:45:14.981Z,33.67
2019-01-24T23:47:47.365Z,34.33
2019-01-24T23:50:28.653Z,33.90
2019-01-24T23:53:02.933Z,34.13
2019-01-24T23:55:36.722Z,31.48
2019-01-24T23:58:14.808Z,32.83
